Time;durP1;ratioP1;P1;durP2;ratioP2;P2;SDS_P1;SDS_P2;PMS_P1;PMS_P2;Temp;Humidity;BMP_temperature;BMP_pressure;BME280_temperature;BME280_humidity;BME280_pressure;Samples;Min_cycle;Max_cycle;Signal;HPM_P1;HPM_P2
2024/02/05 00:00:18;;;;;;;4.10;4.10;;;10.90;99.90;;;;;;5047854;28;20462;-72
2024/02/05 00:02:45;;;;;;;4.53;4.53;;;10.90;99.90;;;;;;5053661;28;20463;-72
2024/02/05 00:05:13;;;;;;;4.40;4.40;;;10.90;99.90;;;;;;5056123;28;20463;-72
2024/02/05 00:07:40;;;;;;;4.47;4.47;;;10.90;99.90;;;;;;5052618;28;20556;-71
2024/02/05 00:10:10;;;;;;;4.30;4.30;;;10.90;99.90;;;;;;5050966;28;20546;-73
2024/02/05 00:12:37;;;;;;;5.10;5.00;;;10.90;99.90;;;;;;5047546;28;20974;-73
2024/02/05 00:15:05;;;;;;;4.87;4.87;;;10.90;99.90;;;;;;5050275;28;20470;-72
2024/02/05 00:17:32;;;;;;;4.70;4.70;;;10.90;99.90;;;;;;5053453;28;20444;-72
2024/02/05 00:19:59;;;;;;;4.83;4.83;;;11.00;99.90;;;;;;5055225;28;20810;-73
2024/02/05 00:22:28;;;;;;;5.63;5.53;;;11.00;99.90;;;;;;5057376;28;20480;-72
2024/02/05 00:24:55;;;;;;;5.57;5.47;;;11.00;99.90;;;;;;5046102;28;20588;-72
2024/02/05 00:27:22;;;;;;;5.57;5.47;;;11.00;99.90;;;;;;5049335;28;20512;-72
2024/02/05 00:29:49;;;;;;;4.90;4.90;;;11.00;99.90;;;;;;5043011;28;20776;-72
2024/02/05 00:32:17;;;;;;;5.67;5.57;;;11.00;99.90;;;;;;5046499;28;20472;-72
2024/02/05 00:34:44;;;;;;;5.77;5.67;;;11.00;99.90;;;;;;5053655;28;20452;-71
2024/02/05 00:37:12;;;;;;;5.90;5.80;;;11.00;99.90;;;;;;5050840;28;20470;-72
2024/02/05 00:39:40;;;;;;;5.73;5.63;;;11.00;99.90;;;;;;5047017;28;20463;-73
2024/02/05 00:42:07;;;;;;;5.60;5.50;;;11.00;99.90;;;;;;5046317;28;20554;-72
2024/02/05 00:44:34;;;;;;;5.20;5.10;;;11.00;99.90;;;;;;5032240;28;20461;-73
2024/02/05 00:47:02;;;;;;;5.63;5.53;;;11.00;99.90;;;;;;5045202;28;20468;-72
2024/02/05 00:49:29;;;;;;;5.73;5.63;;;10.90;99.90;;;;;;5052316;28;20502;-71
2024/02/05 00:51:57;;;;;;;5.43;5.33;;;10.90;99.90;;;;;;5042117;28;20499;-72
2024/02/05 00:54:24;;;;;;;5.77;5.67;;;11.00;99.90;;;;;;5044505;28;20832;-72
2024/02/05 00:56:52;;;;;;;5.37;5.27;;;11.00;99.90;;;;;;5045969;28;20480;-73
2024/02/05 00:59:19;;;;;;;6.00;5.90;;;11.00;99.90;;;;;;5048833;28;20497;-73
2024/02/05 01:01:46;;;;;;;6.03;5.93;;;11.00;99.90;;;;;;5061562;28;20958;-71
2024/02/05 01:04:13;;;;;;;5.53;5.43;;;10.90;99.90;;;;;;5051834;28;20477;-73
2024/02/05 01:06:40;;;;;;;6.00;5.90;;;11.00;99.90;;;;;;5052349;28;20506;-72
2024/02/05 01:09:09;;;;;;;5.73;5.63;;;11.00;99.90;;;;;;5059413;28;20452;-73
2024/02/05 01:11:36;;;;;;;6.07;5.97;;;11.00;99.90;;;;;;5046788;28;20488;-72
2024/02/05 01:14:05;;;;;;;5.50;5.40;;;11.00;99.90;;;;;;5046112;28;20474;-72
2024/02/05 01:16:32;;;;;;;5.70;5.60;;;11.00;99.90;;;;;;5050442;28;20467;-73
2024/02/05 01:18:59;;;;;;;5.50;5.40;;;11.00;99.90;;;;;;5046454;28;20458;-71
2024/02/05 01:21:26;;;;;;;5.40;5.30;;;11.00;99.90;;;;;;5044938;28;20525;-72
2024/02/05 01:23:52;;;;;;;5.60;5.50;;;11.00;99.90;;;;;;5048723;28;20826;-73
2024/02/05 01:26:20;;;;;;;6.10;6.00;;;10.90;99.90;;;;;;5052638;28;20479;-73
2024/02/05 01:28:47;;;;;;;5.83;5.73;;;10.90;99.90;;;;;;5046573;28;20466;-72
2024/02/05 01:31:16;;;;;;;6.40;6.30;;;11.00;99.90;;;;;;5052218;28;20580;-73
2024/02/05 01:33:41;;;;;;;5.83;5.73;;;11.00;99.90;;;;;;5047579;28;21140;-72
2024/02/05 01:36:09;;;;;;;5.63;5.53;;;11.00;99.90;;;;;;5051634;28;20599;-73
2024/02/05 01:38:35;;;;;;;6.03;5.93;;;11.00;99.90;;;;;;5057762;28;20194;-73
2024/02/05 01:41:03;;;;;;;5.50;5.40;;;11.00;99.90;;;;;;5052873;28;20817;-72
2024/02/05 01:43:30;;;;;;;5.80;5.70;;;10.90;99.90;;;;;;5047567;28;20461;-73
2024/02/05 01:45:58;;;;;;;6.10;6.00;;;11.00;99.90;;;;;;5051568;28;20475;-73
2024/02/05 01:48:30;;;;;;;5.50;5.40;;;11.00;99.90;;;;;;5048909;28;20466;-72
2024/02/05 01:50:59;;;;;;;6.03;5.93;;;10.90;99.90;;;;;;5049838;28;20485;-72
2024/02/05 01:53:26;;;;;;;5.80;5.70;;;10.90;99.90;;;;;;5056388;28;20452;-73
2024/02/05 01:55:53;;;;;;;5.93;5.83;;;11.00;99.90;;;;;;5053499;28;21379;-73
2024/02/05 01:58:21;;;;;;;5.93;5.83;;;11.00;99.90;;;;;;5046895;28;20499;-73
2024/02/05 02:00:48;;;;;;;6.13;6.03;;;11.00;99.90;;;;;;5055355;28;20456;-73
2024/02/05 02:03:18;;;;;;;6.13;6.03;;;11.00;99.90;;;;;;5051419;28;20464;-72
2024/02/05 02:05:46;;;;;;;6.17;6.07;;;11.00;99.90;;;;;;5054360;28;20463;-74
2024/02/05 02:08:16;;;;;;;6.63;6.53;;;10.90;99.90;;;;;;5047436;28;20464;-72
2024/02/05 02:10:45;;;;;;;6.70;6.60;;;11.00;99.90;;;;;;5052336;28;21183;-73
2024/02/05 02:13:12;;;;;;;6.50;6.40;;;10.90;99.90;;;;;;5055431;28;20531;-73
2024/02/05 02:15:40;;;;;;;6.70;6.60;;;11.00;99.90;;;;;;5059197;28;20465;-74
2024/02/05 02:18:10;;;;;;;6.23;6.13;;;11.00;99.90;;;;;;5054642;28;20865;-72
2024/02/05 02:20:45;;;;;;;6.30;6.20;;;10.90;99.90;;;;;;5050385;28;20475;-73
2024/02/05 02:23:22;;;;;;;6.40;6.30;;;11.00;99.90;;;;;;5056456;28;20543;-72
2024/02/05 02:25:50;;;;;;;6.47;6.37;;;10.90;99.90;;;;;;5049605;28;20550;-73
2024/02/05 02:28:17;;;;;;;6.10;6.00;;;10.90;99.90;;;;;;5050086;28;20964;-72
2024/02/05 02:30:46;;;;;;;6.37;6.27;;;10.90;99.90;;;;;;5052005;28;20492;-73
2024/02/05 02:33:18;;;;;;;5.80;5.70;;;10.90;99.90;;;;;;5052331;28;20548;-74
2024/02/05 02:35:51;;;;;;;5.77;5.67;;;10.90;99.90;;;;;;5058278;28;20537;-72
2024/02/05 02:38:25;;;;;;;5.93;5.83;;;10.90;99.90;;;;;;5051959;28;20833;-73
2024/02/05 02:40:58;;;;;;;6.30;6.20;;;10.90;99.90;;;;;;5051778;28;20476;-73
2024/02/05 02:43:26;;;;;;;6.20;6.10;;;10.90;99.90;;;;;;5050645;28;20465;-72
2024/02/05 02:45:55;;;;;;;5.80;5.70;;;10.90;99.90;;;;;;5053721;28;20467;-72
2024/02/05 02:48:22;;;;;;;5.97;5.87;;;10.90;99.90;;;;;;5051923;28;20456;-72
2024/02/05 02:50:49;;;;;;;6.27;6.17;;;10.90;99.90;;;;;;5050088;28;20482;-74
2024/02/05 02:53:16;;;;;;;5.97;5.87;;;10.90;99.90;;;;;;5051651;28;20938;-72
2024/02/05 02:55:44;;;;;;;6.27;6.17;;;10.90;99.90;;;;;;5055584;28;20557;-72
2024/02/05 02:58:11;;;;;;;6.30;6.20;;;10.90;99.90;;;;;;5052595;28;20496;-72
2024/02/05 03:00:37;;;;;;;6.03;5.93;;;10.90;99.90;;;;;;5053229;28;20912;-72
2024/02/05 03:03:05;;;;;;;6.13;6.03;;;10.80;99.90;;;;;;5063736;28;20458;-72
2024/02/05 03:05:31;;;;;;;5.77;5.67;;;10.80;99.90;;;;;;5050799;28;20572;-71
2024/02/05 03:07:58;;;;;;;5.97;5.87;;;10.90;99.90;;;;;;5057938;28;20448;-73
2024/02/05 03:10:25;;;;;;;5.70;5.60;;;10.90;99.90;;;;;;5059942;28;20950;-72
2024/02/05 03:12:53;;;;;;;6.60;6.50;;;10.80;99.90;;;;;;5048212;28;20881;-72
2024/02/05 03:15:20;;;;;;;6.80;6.70;;;10.80;99.90;;;;;;5053940;28;20913;-72
2024/02/05 03:17:47;;;;;;;6.70;6.60;;;10.80;99.90;;;;;;5049743;28;20958;-72
2024/02/05 03:20:33;;;;;;;5.93;5.83;;;10.80;99.90;;;;;;5064108;28;20933;-72
2024/02/05 03:23:01;;;;;;;5.93;5.83;;;10.80;99.90;;;;;;5056292;28;20521;-71
2024/02/05 03:25:28;;;;;;;6.10;6.00;;;10.80;99.90;;;;;;5057427;28;21054;-71
2024/02/05 03:27:57;;;;;;;6.00;5.90;;;10.80;99.90;;;;;;5054293;28;20499;-72
2024/02/05 03:30:24;;;;;;;6.50;6.40;;;10.80;99.90;;;;;;5052088;28;20467;-71
2024/02/05 03:32:52;;;;;;;6.60;6.50;;;10.70;99.90;;;;;;5054266;28;20499;-71
2024/02/05 03:35:18;;;;;;;6.57;6.47;;;10.70;99.90;;;;;;5063278;28;21286;-71
2024/02/05 03:37:45;;;;;;;6.23;6.13;;;10.70;99.90;;;;;;5059160;28;20448;-72
2024/02/05 03:40:13;;;;;;;6.43;6.33;;;10.70;99.90;;;;;;5063016;28;20866;-72
2024/02/05 03:42:40;;;;;;;6.80;6.70;;;10.70;99.90;;;;;;5052422;28;20460;-71
2024/02/05 03:45:09;;;;;;;6.77;6.67;;;10.70;99.90;;;;;;5052410;28;20571;-71
2024/02/05 03:47:36;;;;;;;6.60;6.50;;;10.70;99.90;;;;;;5049371;28;20550;-71
2024/02/05 03:50:04;;;;;;;7.00;6.90;;;10.70;99.90;;;;;;5055450;28;20463;-74
2024/02/05 03:52:31;;;;;;;6.57;6.47;;;10.70;99.90;;;;;;5053126;28;20533;-72
2024/02/05 03:54:59;;;;;;;7.10;7.00;;;10.70;99.90;;;;;;5053382;28;20478;-71
2024/02/05 03:57:25;;;;;;;6.60;6.50;;;10.70;99.90;;;;;;5065876;28;20533;-72
2024/02/05 03:59:54;;;;;;;7.20;7.10;;;10.70;99.90;;;;;;5049333;28;20544;-73
2024/02/05 04:02:24;;;;;;;7.50;7.40;;;10.70;99.90;;;;;;5054579;28;20482;-74
2024/02/05 04:04:52;;;;;;;7.50;7.40;;;10.70;99.90;;;;;;5057481;28;20462;-72
2024/02/05 04:07:18;;;;;;;6.60;6.50;;;10.60;99.90;;;;;;5059912;28;20462;-72
2024/02/05 04:09:45;;;;;;;6.90;6.80;;;10.60;99.90;;;;;;5059233;28;20460;-71
2024/02/05 04:12:12;;;;;;;7.17;7.07;;;10.60;99.90;;;;;;5053740;28;20484;-71
2024/02/05 04:14:39;;;;;;;6.80;6.70;;;10.60;99.90;;;;;;5048979;28;20966;-73
2024/02/05 04:17:08;;;;;;;6.93;6.83;;;10.60;99.90;;;;;;5052705;28;20532;-71
2024/02/05 04:19:37;;;;;;;6.97;6.87;;;10.60;99.90;;;;;;5056809;28;20475;-71
2024/02/05 04:22:04;;;;;;;6.93;6.83;;;10.60;99.90;;;;;;5051817;28;20464;-72
2024/02/05 04:24:31;;;;;;;7.20;7.10;;;10.60;99.90;;;;;;5045676;28;20475;-72
2024/02/05 04:26:58;;;;;;;6.83;6.73;;;10.60;99.90;;;;;;5056777;28;20480;-71
2024/02/05 04:29:27;;;;;;;6.60;6.50;;;10.60;99.90;;;;;;5063659;28;20455;-72
2024/02/05 04:31:54;;;;;;;7.07;6.97;;;10.60;99.90;;;;;;5051230;28;20967;-73
2024/02/05 04:34:21;;;;;;;7.17;7.07;;;10.60;99.90;;;;;;5047936;28;20495;-70
2024/02/05 04:36:50;;;;;;;7.23;7.13;;;10.50;99.90;;;;;;5059215;28;20454;-71
2024/02/05 04:39:17;;;;;;;7.03;6.93;;;10.60;99.90;;;;;;5066472;28;20449;-73
2024/02/05 04:41:45;;;;;;;7.20;7.10;;;10.50;99.90;;;;;;5055461;28;20826;-72
2024/02/05 04:44:12;;;;;;;6.93;6.83;;;10.50;99.90;;;;;;5055579;28;20464;-73
2024/02/05 04:46:39;;;;;;;6.70;6.60;;;10.50;99.90;;;;;;5054009;28;20954;-72
2024/02/05 04:49:06;;;;;;;7.13;7.03;;;10.50;99.90;;;;;;5054595;28;20541;-70
2024/02/05 04:51:33;;;;;;;7.30;7.20;;;10.50;99.90;;;;;;5054336;28;20487;-71
2024/02/05 04:54:01;;;;;;;6.90;6.80;;;10.50;99.90;;;;;;5049738;28;20670;-73
2024/02/05 04:56:28;;;;;;;7.20;7.10;;;10.50;99.90;;;;;;5049044;28;20466;-73
2024/02/05 04:58:56;;;;;;;7.00;6.90;;;10.50;99.90;;;;;;5053869;28;20491;-73
2024/02/05 05:01:23;;;;;;;7.57;7.47;;;10.50;99.90;;;;;;5051351;28;20459;-72
2024/02/05 05:03:50;;;;;;;7.47;7.37;;;10.50;99.90;;;;;;5064561;28;20537;-72
2024/02/05 05:06:16;;;;;;;7.80;7.70;;;10.50;99.90;;;;;;5056913;28;20476;-71
2024/02/05 05:08:43;;;;;;;8.03;7.93;;;10.50;99.90;;;;;;5057871;28;20467;-72
2024/02/05 05:11:20;;;;;;;7.77;7.67;;;10.50;99.90;;;;;;5056006;28;20526;-73
2024/02/05 05:13:48;;;;;;;8.00;7.90;;;10.50;99.90;;;;;;5052933;28;20469;-72
2024/02/05 05:16:16;;;;;;;7.43;7.33;;;10.50;99.90;;;;;;5052878;28;20511;-71
2024/02/05 05:18:42;;;;;;;7.80;7.70;;;10.50;99.90;;;;;;5056589;28;20769;-72
2024/02/05 05:21:10;;;;;;;8.07;7.97;;;10.50;99.90;;;;;;5059854;28;20469;-72
2024/02/05 05:23:37;;;;;;;8.17;8.07;;;10.40;99.90;;;;;;5058665;28;20477;-71
2024/02/05 05:26:05;;;;;;;8.23;8.13;;;10.40;99.90;;;;;;5061960;28;21000;-71
2024/02/05 05:28:34;;;;;;;8.37;8.27;;;10.40;99.90;;;;;;5050300;28;21282;-72
2024/02/05 05:31:01;;;;;;;7.90;7.80;;;10.40;99.90;;;;;;5061308;28;20570;-73
2024/02/05 05:33:27;;;;;;;7.87;7.77;;;10.40;99.90;;;;;;5052496;28;20497;-71
2024/02/05 05:35:54;;;;;;;8.43;8.33;;;10.40;99.90;;;;;;5055300;28;20463;-72
2024/02/05 05:38:21;;;;;;;8.10;8.00;;;10.50;99.90;;;;;;5058172;28;20803;-71
2024/02/05 05:40:49;;;;;;;8.30;8.20;;;10.40;99.90;;;;;;5054842;28;20516;-73
2024/02/05 05:43:16;;;;;;;8.83;8.63;;;10.40;99.90;;;;;;5049531;28;20464;-73
2024/02/05 05:45:44;;;;;;;8.50;8.40;;;10.40;99.90;;;;;;5052760;28;20472;-72
2024/02/05 05:48:11;;;;;;;8.80;8.60;;;10.40;99.90;;;;;;5056438;28;20487;-72
2024/02/05 05:50:38;;;;;;;8.90;8.70;;;10.30;99.90;;;;;;5053532;28;20475;-73
2024/02/05 05:53:05;;;;;;;8.83;8.63;;;10.30;99.90;;;;;;5053604;28;20502;-72
2024/02/05 05:55:32;;;;;;;8.50;8.40;;;10.30;99.90;;;;;;5062685;28;20467;-73
2024/02/05 05:57:58;;;;;;;9.10;8.90;;;10.30;99.90;;;;;;5061580;28;20585;-72
2024/02/05 06:00:40;;;;;;;9.13;8.93;;;10.30;99.90;;;;;;5064338;28;20462;-73
2024/02/05 06:03:09;;;;;;;8.80;8.60;;;10.30;99.90;;;;;;5057364;28;20457;-72
2024/02/05 06:05:35;;;;;;;8.73;8.57;;;10.30;99.90;;;;;;5061788;28;20820;-72
2024/02/05 06:08:02;;;;;;;9.10;8.90;;;10.30;99.90;;;;;;5052502;28;20476;-72
2024/02/05 06:10:29;;;;;;;8.90;8.70;;;10.30;99.90;;;;;;5058139;28;20463;-73
2024/02/05 06:12:58;;;;;;;8.80;8.60;;;10.20;99.90;;;;;;5064859;28;20492;-72
2024/02/05 06:15:25;;;;;;;8.60;8.50;;;10.30;99.90;;;;;;5057689;28;20469;-72
2024/02/05 06:17:51;;;;;;;9.37;9.17;;;10.20;99.90;;;;;;5057315;28;20471;-72
2024/02/05 06:20:20;;;;;;;9.20;9.00;;;10.20;99.90;;;;;;5056128;28;20957;-73
2024/02/05 06:22:46;;;;;;;9.00;8.80;;;10.20;99.90;;;;;;5057711;28;20846;-73
2024/02/05 06:25:14;;;;;;;9.33;9.13;;;10.20;99.90;;;;;;5066850;28;20458;-71
2024/02/05 06:27:41;;;;;;;9.40;9.20;;;10.20;99.90;;;;;;5060991;28;20475;-73
2024/02/05 06:30:08;;;;;;;9.23;9.03;;;10.20;99.90;;;;;;5063527;28;20460;-72
2024/02/05 06:32:35;;;;;;;9.00;8.80;;;10.10;99.90;;;;;;5058002;28;20642;-73
2024/02/05 06:35:02;;;;;;;9.10;8.90;;;10.20;99.90;;;;;;5054618;28;20467;-73
2024/02/05 06:37:30;;;;;;;8.80;8.60;;;10.20;99.90;;;;;;5060569;28;20467;-72
2024/02/05 06:39:58;;;;;;;8.80;8.60;;;10.10;99.90;;;;;;5059273;28;20457;-72
2024/02/05 06:42:24;;;;;;;9.20;9.00;;;10.10;99.90;;;;;;5068088;28;20828;-72
2024/02/05 06:44:52;;;;;;;9.73;9.53;;;10.10;99.90;;;;;;5062550;28;20538;-72
2024/02/05 06:47:20;;;;;;;9.40;9.20;;;10.10;99.90;;;;;;5060317;28;20960;-73
2024/02/05 06:49:47;;;;;;;9.27;9.07;;;10.10;99.90;;;;;;5051383;28;20473;-73
2024/02/05 06:52:15;;;;;;;9.30;9.10;;;10.10;99.90;;;;;;5050219;28;20486;-71
2024/02/05 06:54:43;;;;;;;9.33;9.13;;;10.00;99.90;;;;;;5060363;28;20522;-72
2024/02/05 06:57:10;;;;;;;10.10;9.90;;;10.00;99.90;;;;;;5062383;28;20460;-72
2024/02/05 06:59:37;;;;;;;9.43;9.23;;;10.00;99.90;;;;;;5060552;28;20851;-71
2024/02/05 07:02:08;;;;;;;10.00;9.80;;;10.00;99.90;;;;;;5063246;28;20466;-71
2024/02/05 07:04:35;;;;;;;10.00;9.80;;;10.00;99.90;;;;;;5052689;28;20938;-73
2024/02/05 07:07:02;;;;;;;10.60;10.30;;;10.00;99.90;;;;;;5052112;28;21271;-72
2024/02/05 07:09:29;;;;;;;9.93;9.73;;;10.00;99.90;;;;;;5050930;28;20466;-71
2024/02/05 07:11:57;;;;;;;9.90;9.70;;;10.00;99.90;;;;;;5058100;28;20559;-73
2024/02/05 07:14:24;;;;;;;10.30;10.10;;;9.90;99.90;;;;;;5058479;28;20464;-72
2024/02/05 07:16:52;;;;;;;9.97;9.77;;;10.00;99.90;;;;;;5062607;28;20551;-72
2024/02/05 07:19:19;;;;;;;10.07;9.87;;;9.90;99.90;;;;;;5056542;28;20517;-73
2024/02/05 07:21:46;;;;;;;9.90;9.70;;;9.90;99.90;;;;;;5050887;28;20464;-72
2024/02/05 07:24:13;;;;;;;9.70;9.50;;;10.00;99.90;;;;;;5056519;28;20555;-72
2024/02/05 07:26:40;;;;;;;9.97;9.77;;;9.90;99.90;;;;;;5057172;28;21146;-72
2024/02/05 07:29:08;;;;;;;10.10;9.90;;;9.90;99.90;;;;;;5063108;28;20489;-73
2024/02/05 07:31:34;;;;;;;10.17;9.97;;;9.90;99.90;;;;;;5057194;28;20459;-74
2024/02/05 07:34:01;;;;;;;10.20;10.00;;;9.90;99.90;;;;;;5054538;28;20498;-72
2024/02/05 07:36:28;;;;;;;10.10;9.90;;;9.90;99.90;;;;;;5061368;28;20977;-73
2024/02/05 07:38:56;;;;;;;10.80;10.50;;;9.90;99.90;;;;;;5051835;28;20954;-73
2024/02/05 07:41:23;;;;;;;10.80;10.50;;;9.90;99.90;;;;;;5056262;28;20991;-74
2024/02/05 07:43:50;;;;;;;10.33;10.10;;;9.90;99.90;;;;;;5055558;28;20837;-72
2024/02/05 07:46:18;;;;;;;10.87;10.57;;;9.80;99.90;;;;;;5059226;28;20464;-73
2024/02/05 07:48:44;;;;;;;10.30;10.10;;;9.90;99.90;;;;;;5057967;28;20460;-71
2024/02/05 07:51:12;;;;;;;10.13;9.93;;;9.90;99.90;;;;;;5054962;28;20468;-74
2024/02/05 07:53:39;;;;;;;10.23;10.03;;;9.90;99.90;;;;;;5047297;28;20491;-73
2024/02/05 07:56:09;;;;;;;10.47;10.20;;;9.90;99.90;;;;;;5044610;28;20463;-73
2024/02/05 07:58:36;;;;;;;9.87;9.67;;;9.90;99.90;;;;;;5045778;28;20511;-72
2024/02/05 08:01:03;;;;;;;9.77;9.57;;;9.90;99.90;;;;;;5045354;28;21040;-74
2024/02/05 08:03:32;;;;;;;10.53;10.30;;;9.90;99.90;;;;;;5048120;28;21227;-73
2024/02/05 08:06:00;;;;;;;10.00;9.80;;;9.90;99.90;;;;;;5048790;28;20456;-71
2024/02/05 08:08:27;;;;;;;10.10;9.90;;;10.00;99.90;;;;;;5043547;28;20468;-73
2024/02/05 08:10:53;;;;;;;9.70;9.50;;;10.00;99.90;;;;;;5039384;28;20963;-74
2024/02/05 08:13:21;;;;;;;9.60;9.40;;;10.00;99.90;;;;;;5046250;28;20493;-71
2024/02/05 08:15:48;;;;;;;10.40;10.20;;;10.00;99.90;;;;;;5049803;28;20459;-73
2024/02/05 08:18:14;;;;;;;9.90;9.70;;;10.00;99.90;;;;;;5050368;28;20472;-74
2024/02/05 08:20:43;;;;;;;10.00;9.80;;;10.00;99.90;;;;;;5050564;28;20463;-71
2024/02/05 08:23:10;;;;;;;10.10;9.90;;;10.10;99.90;;;;;;5047496;28;20496;-72
2024/02/05 08:25:37;;;;;;;10.10;9.90;;;10.00;99.90;;;;;;5045841;28;20457;-72
2024/02/05 08:28:05;;;;;;;10.20;10.00;;;10.00;99.90;;;;;;5047391;28;20897;-72
2024/02/05 08:30:32;;;;;;;10.03;9.83;;;10.10;99.90;;;;;;5051426;28;20472;-72
2024/02/05 08:32:59;;;;;;;10.80;10.50;;;10.10;99.90;;;;;;5049981;28;20495;-72
2024/02/05 08:35:26;;;;;;;11.07;10.77;;;10.10;99.90;;;;;;5047644;28;20455;-72
2024/02/05 08:37:54;;;;;;;11.30;11.00;;;10.10;99.90;;;;;;5049864;28;20464;-72
2024/02/05 08:40:21;;;;;;;11.10;10.80;;;10.20;99.90;;;;;;5047654;28;20873;-71
2024/02/05 08:42:48;;;;;;;11.23;10.93;;;10.20;99.90;;;;;;5044972;28;20970;-72
2024/02/05 08:45:18;;;;;;;11.20;10.90;;;10.20;99.90;;;;;;5047825;28;21175;-71
2024/02/05 08:47:44;;;;;;;11.80;11.50;;;10.10;99.90;;;;;;5047260;28;20501;-74
2024/02/05 08:50:12;;;;;;;11.63;11.33;;;10.20;99.90;;;;;;5050132;28;20532;-72
2024/02/05 08:52:39;;;;;;;11.70;11.40;;;10.20;99.90;;;;;;5046051;28;20487;-71
2024/02/05 08:55:08;;;;;;;11.40;11.10;;;10.20;99.90;;;;;;5050420;28;20470;-73
2024/02/05 08:57:35;;;;;;;11.60;11.30;;;10.20;99.90;;;;;;5047648;28;20494;-72
2024/02/05 09:00:03;;;;;;;11.13;10.83;;;10.30;99.90;;;;;;5043537;28;20834;-73
2024/02/05 09:02:30;;;;;;;11.30;11.00;;;10.30;99.90;;;;;;5046355;28;20474;-71
2024/02/05 09:04:57;;;;;;;10.93;10.63;;;10.30;99.90;;;;;;5049648;28;20943;-72
2024/02/05 09:07:24;;;;;;;11.87;11.57;;;10.30;99.90;;;;;;5046264;28;20551;-72
2024/02/05 09:09:52;;;;;;;12.10;11.70;;;10.40;99.90;;;;;;5041513;28;20484;-72
2024/02/05 09:12:20;;;;;;;12.00;11.60;;;10.40;99.90;;;;;;5043186;28;20823;-72
2024/02/05 09:14:47;;;;;;;12.07;11.67;;;10.30;99.90;;;;;;5040734;28;20571;-71
2024/02/05 09:17:15;;;;;;;12.17;11.77;;;10.30;99.90;;;;;;5050123;28;20459;-72
2024/02/05 09:19:42;;;;;;;11.90;11.60;;;10.30;99.90;;;;;;5045940;28;20464;-71
2024/02/05 09:22:09;;;;;;;12.40;12.00;;;10.40;99.90;;;;;;5047842;28;20474;-71
2024/02/05 09:24:37;;;;;;;12.10;11.70;;;10.40;99.90;;;;;;5048379;28;20467;-72
2024/02/05 09:27:05;;;;;;;13.07;12.67;;;10.50;99.90;;;;;;5044768;28;20495;-71
2024/02/05 09:29:33;;;;;;;12.60;12.20;;;10.50;99.90;;;;;;5048512;28;20468;-71
2024/02/05 09:32:00;;;;;;;12.83;12.43;;;10.50;99.90;;;;;;5047382;28;20469;-71
2024/02/05 09:34:27;;;;;;;12.63;12.23;;;10.50;99.90;;;;;;5045611;28;21019;-72
2024/02/05 09:36:54;;;;;;;12.90;12.50;;;10.60;99.90;;;;;;5050038;28;20558;-71
2024/02/05 09:39:21;;;;;;;12.80;12.40;;;10.70;99.90;;;;;;5044516;28;20543;-74
2024/02/05 09:41:48;;;;;;;13.37;12.97;;;10.60;99.90;;;;;;5049988;28;20456;-73
2024/02/05 09:44:16;;;;;;;13.57;13.07;;;10.60;99.90;;;;;;5041106;28;20468;-73
2024/02/05 09:46:49;;;;;;;13.03;12.63;;;10.60;99.90;;;;;;5049022;28;20460;-71
2024/02/05 09:49:15;;;;;;;13.63;13.17;;;10.60;99.90;;;;;;5049132;28;20464;-72
2024/02/05 09:51:44;;;;;;;12.90;12.50;;;10.60;99.90;;;;;;5049686;28;21001;-71
2024/02/05 09:54:11;;;;;;;13.27;12.87;;;10.60;99.90;;;;;;5047717;28;20927;-73
2024/02/05 09:56:38;;;;;;;13.07;12.67;;;10.50;99.90;;;;;;5046587;28;20906;-70
2024/02/05 09:59:05;;;;;;;13.00;12.60;;;10.60;99.90;;;;;;5044135;28;20501;-71
2024/02/05 10:01:34;;;;;;;13.90;13.40;;;10.80;99.90;;;;;;5048119;28;20469;-72
2024/02/05 10:04:05;;;;;;;13.77;13.27;;;10.70;99.90;;;;;;5048427;28;20471;-70
2024/02/05 10:06:33;;;;;;;13.40;13.00;;;10.80;99.90;;;;;;5046039;28;20472;-72
2024/02/05 10:09:04;;;;;;;13.87;13.37;;;10.80;99.90;;;;;;5049133;28;20878;-73
2024/02/05 10:11:32;;;;;;;14.10;13.60;;;10.70;99.90;;;;;;5049176;28;20452;-71
2024/02/05 10:14:00;;;;;;;13.67;13.17;;;10.70;99.90;;;;;;5042647;28;20498;-72
2024/02/05 10:16:27;;;;;;;13.40;12.97;;;10.80;99.90;;;;;;5046438;28;20463;-71
2024/02/05 10:18:54;;;;;;;13.70;13.20;;;10.90;99.90;;;;;;5049911;28;20557;-71
2024/02/05 10:21:22;;;;;;;14.27;13.77;;;11.00;99.90;;;;;;5046847;28;20470;-72
2024/02/05 10:23:53;;;;;;;14.07;13.57;;;11.00;99.90;;;;;;5046888;28;20591;-71
2024/02/05 10:26:20;;;;;;;13.97;13.47;;;11.00;99.90;;;;;;5047893;28;20465;-70
2024/02/05 10:28:46;;;;;;;13.80;13.30;;;11.00;99.90;;;;;;5043880;28;20490;-70
2024/02/05 10:31:16;;;;;;;14.30;13.80;;;11.00;99.90;;;;;;5047327;28;20974;-71
2024/02/05 10:33:43;;;;;;;14.10;13.60;;;11.10;99.90;;;;;;5048730;28;20498;-72
2024/02/05 10:36:11;;;;;;;14.07;13.57;;;11.00;99.90;;;;;;5048795;28;20851;-70
2024/02/05 10:38:39;;;;;;;13.90;13.40;;;11.00;99.90;;;;;;5054556;28;20461;-69
2024/02/05 10:41:06;;;;;;;14.23;13.73;;;11.10;99.90;;;;;;5052262;28;20461;-70
2024/02/05 10:43:33;;;;;;;14.37;13.87;;;11.00;99.90;;;;;;5049876;28;20471;-69
2024/02/05 10:45:59;;;;;;;14.40;13.90;;;11.00;99.90;;;;;;5044436;28;20464;-70
2024/02/05 10:48:27;;;;;;;14.40;13.90;;;11.20;99.90;;;;;;5051706;28;20475;-71
2024/02/05 10:50:54;;;;;;;14.37;13.87;;;11.20;99.90;;;;;;5048943;28;20824;-70
2024/02/05 10:53:23;;;;;;;14.30;13.80;;;11.20;99.90;;;;;;5051858;28;20603;-70
2024/02/05 10:55:57;;;;;;;14.03;13.53;;;11.20;99.90;;;;;;5053043;28;20464;-70
2024/02/05 10:58:26;;;;;;;13.73;13.23;;;11.30;99.90;;;;;;5052557;28;20494;-70
2024/02/05 11:00:58;;;;;;;14.50;14.00;;;11.40;99.90;;;;;;5049566;28;20457;-71
2024/02/05 11:03:27;;;;;;;14.17;13.67;;;11.40;99.90;;;;;;5044381;28;20472;-72
2024/02/05 11:05:58;;;;;;;14.50;14.00;;;11.20;99.90;;;;;;5051723;28;20534;-70
2024/02/05 11:08:27;;;;;;;13.70;13.20;;;11.00;99.90;;;;;;5050437;28;20587;-70
2024/02/05 11:10:59;;;;;;;14.03;13.53;;;11.10;99.90;;;;;;5050660;28;20494;-70
2024/02/05 11:13:32;;;;;;;13.47;13.07;;;11.30;99.90;;;;;;5050275;28;20881;-72
2024/02/05 11:16:00;;;;;;;14.07;13.57;;;11.20;99.90;;;;;;5052300;28;20963;-70
2024/02/05 11:18:30;;;;;;;14.23;13.73;;;11.40;99.90;;;;;;5051486;28;20484;-70
2024/02/05 11:20:59;;;;;;;14.20;13.70;;;11.40;99.90;;;;;;5044991;28;20488;-71
2024/02/05 11:23:27;;;;;;;13.30;12.90;;;11.70;99.90;;;;;;5047486;28;20461;-70
2024/02/05 11:25:56;;;;;;;14.03;13.53;;;12.10;99.90;;;;;;5050171;28;20477;-71
2024/02/05 11:28:23;;;;;;;13.60;13.10;;;12.10;99.90;;;;;;5049554;28;20843;-72
2024/02/05 11:30:50;;;;;;;14.40;13.90;;;12.00;99.90;;;;;;5050524;28;20512;-69
2024/02/05 11:33:26;;;;;;;14.23;13.73;;;11.70;99.90;;;;;;5042979;28;20470;-70
2024/02/05 11:35:56;;;;;;;14.40;13.90;;;11.50;99.90;;;;;;5046220;28;20928;-71
2024/02/05 11:38:23;;;;;;;13.87;13.37;;;11.40;99.90;;;;;;5050597;28;20548;-70
2024/02/05 11:40:51;;;;;;;13.93;13.43;;;11.70;99.90;;;;;;5049948;28;20458;-69
2024/02/05 11:43:24;;;;;;;13.23;12.83;;;12.00;99.90;;;;;;5046462;28;20970;-71
2024/02/05 11:45:51;;;;;;;13.50;13.10;;;12.20;99.90;;;;;;5049012;28;21319;-70
2024/02/05 11:48:19;;;;;;;13.53;13.13;;;12.30;99.90;;;;;;5048006;28;20465;-69
2024/02/05 11:50:47;;;;;;;13.90;13.40;;;12.40;99.90;;;;;;5044932;28;20984;-70
2024/02/05 11:53:15;;;;;;;13.77;13.27;;;12.30;99.90;;;;;;5050188;28;20476;-71
2024/02/05 11:55:42;;;;;;;13.93;13.43;;;12.30;99.90;;;;;;5050301;28;20478;-71
2024/02/05 11:58:09;;;;;;;14.27;13.77;;;12.20;99.90;;;;;;5050745;28;21200;-70
2024/02/05 12:00:37;;;;;;;14.47;13.97;;;12.30;99.90;;;;;;5046370;28;20463;-70
2024/02/05 12:03:05;;;;;;;14.23;13.73;;;12.20;99.90;;;;;;5046633;28;20473;-70
2024/02/05 12:05:32;;;;;;;13.77;13.30;;;12.20;99.90;;;;;;5050071;28;20995;-69
2024/02/05 12:08:01;;;;;;;13.90;13.40;;;12.60;99.90;;;;;;5050620;28;20974;-72
2024/02/05 12:10:29;;;;;;;14.27;13.77;;;12.90;99.90;;;;;;5048599;28;20466;-70
2024/02/05 12:12:56;;;;;;;14.37;13.87;;;12.70;99.90;;;;;;5048599;28;20463;-69
2024/02/05 12:15:25;;;;;;;14.53;14.03;;;12.90;99.90;;;;;;5046320;28;20490;-70
2024/02/05 12:18:01;;;;;;;14.40;13.90;;;13.10;99.90;;;;;;5049859;28;20999;-71
2024/02/05 12:20:29;;;;;;;14.00;13.50;;;13.30;99.90;;;;;;5048896;28;20539;-71
2024/02/05 12:22:56;;;;;;;14.27;13.77;;;13.50;99.90;;;;;;5049004;28;21011;-71
2024/02/05 12:25:23;;;;;;;14.77;14.27;;;13.70;99.90;;;;;;5050568;28;20557;-70
2024/02/05 12:27:51;;;;;;;14.23;13.73;;;13.60;99.90;;;;;;5049146;28;20509;-70
2024/02/05 12:30:18;;;;;;;14.40;13.90;;;13.30;99.90;;;;;;5043859;28;21968;-70
2024/02/05 12:32:52;;;;;;;14.60;14.10;;;12.50;99.90;;;;;;5049693;28;20473;-70
2024/02/05 12:35:21;;;;;;;14.03;13.53;;;11.70;99.90;;;;;;5048576;28;20505;-71
2024/02/05 12:37:49;;;;;;;14.27;13.77;;;11.60;99.90;;;;;;5047594;28;20959;-72
2024/02/05 12:40:16;;;;;;;14.23;13.73;;;11.60;99.90;;;;;;5049935;28;20461;-72
2024/02/05 12:42:44;;;;;;;14.63;14.13;;;11.50;99.90;;;;;;5045551;28;20469;-71